Time;durP1;ratioP1;P1;durP2;ratioP2;P2;SDS_P1;SDS_P2;PMS_P1;PMS_P2;Temp;Humidity;BMP_temperature;BMP_pressure;BME280_temperature;BME280_humidity;BME280_pressure;Samples;Min_cycle;Max_cycle;Signal;HPM_P1;HPM_P2
2023/10/03 00:01:03;;;;;;;19.80;11.35;;;;;;;17.75;89.54;100855.25;5050278;28;20143;-64
2023/10/03 00:03:30;;;;;;;18.77;11.48;;;;;;;17.73;89.58;100847.34;5053710;28;20156;-64
2023/10/03 00:05:58;;;;;;;18.60;11.63;;;;;;;17.68;89.51;100844.22;5052537;28;20049;-63
2023/10/03 00:08:26;;;;;;;20.63;11.52;;;;;;;17.63;89.59;100841.13;5052054;28;20541;-64
2023/10/03 00:10:54;;;;;;;24.08;12.18;;;;;;;17.60;90.31;100836.03;5050885;28;20044;-65
2023/10/03 00:13:24;;;;;;;20.35;12.68;;;;;;;17.55;90.67;100832.94;5041336;28;20056;-64
2023/10/03 00:15:51;;;;;;;24.95;12.88;;;;;;;17.49;92.75;100830.81;5054616;28;20041;-65
2023/10/03 00:18:19;;;;;;;18.58;11.10;;;;;;;17.43;92.03;100826.84;5057324;28;20548;-65
2023/10/03 00:20:47;;;;;;;17.63;10.95;;;;;;;17.41;92.16;100823.44;5054775;28;20079;-62
2023/10/03 00:23:14;;;;;;;22.08;11.38;;;;;;;17.35;92.85;100818.66;5053770;28;20534;-64
2023/10/03 00:25:42;;;;;;;20.02;11.75;;;;;;;17.34;92.71;100814.31;5056399;28;20219;-64
2023/10/03 00:28:10;;;;;;;21.05;12.55;;;;;;;17.32;93.44;100810.94;5057619;28;20048;-64
2023/10/03 00:30:45;;;;;;;22.52;12.40;;;;;;;17.32;94.37;100802.94;5053309;28;20053;-65
2023/10/03 00:33:13;;;;;;;21.42;12.73;;;;;;;17.29;94.41;100795.22;5055637;28;20107;-64
2023/10/03 00:35:41;;;;;;;21.08;12.48;;;;;;;17.27;94.95;100797.16;5046417;28;20072;-64
2023/10/03 00:38:13;;;;;;;18.55;12.07;;;;;;;17.27;95.21;100797.16;5049064;28;20053;-63
2023/10/03 00:40:48;;;;;;;19.33;12.25;;;;;;;17.24;96.29;100792.09;5047936;28;20515;-65
2023/10/03 00:43:16;;;;;;;20.48;12.15;;;;;;;17.21;96.10;100788.75;5046705;28;20045;-63
2023/10/03 00:45:45;;;;;;;22.38;12.63;;;;;;;17.22;96.09;100786.91;5051681;28;20480;-65
2023/10/03 00:48:12;;;;;;;22.75;11.40;;;;;;;17.20;95.84;100786.19;5047250;28;20041;-62
2023/10/03 00:50:42;;;;;;;21.20;11.35;;;;;;;17.19;97.04;100780.03;5050594;28;20036;-64
2023/10/03 00:53:13;;;;;;;17.33;11.32;;;;;;;17.19;97.53;100769.38;5050450;28;20072;-65
2023/10/03 00:55:43;;;;;;;23.08;12.35;;;;;;;17.14;97.30;100776.91;5049342;28;20049;-64
2023/10/03 01:00:53;;;;;;;19.10;11.02;;;;;;;17.11;97.72;100774.53;5044798;28;20077;-65
2023/10/03 01:03:36;;;;;;;20.60;11.38;;;;;;;17.08;97.50;100768.63;5053435;28;20053;-64
2023/10/03 01:06:10;;;;;;;18.77;10.63;;;;;;;17.04;97.36;100759.19;5049420;28;20052;-64
2023/10/03 01:08:42;;;;;;;14.68;10.20;;;;;;;17.02;97.31;100761.13;5047592;28;20089;-65
2023/10/03 01:11:29;;;;;;;22.17;10.50;;;;;;;16.98;97.12;100757.06;5042453;28;20042;-64
2023/10/03 01:14:00;;;;;;;17.50;10.73;;;;;;;16.95;96.80;100753.69;5053228;28;20145;-65
2023/10/03 01:16:30;;;;;;;16.73;10.85;;;;;;;16.92;96.88;100751.25;5046788;28;20140;-64
2023/10/03 01:21:54;;;;;;;19.50;9.95;;;;;;;16.89;96.59;100743.56;5043253;28;20056;-65
2023/10/03 01:24:24;;;;;;;20.42;10.93;;;;;;;16.88;97.28;100741.00;5046961;28;20089;-64
2023/10/03 01:26:53;;;;;;;19.63;11.75;;;;;;;16.85;96.74;100738.63;5045350;28;20045;-65
2023/10/03 01:29:21;;;;;;;18.02;10.63;;;;;;;16.81;96.35;100738.03;5066938;28;20049;-65
2023/10/03 01:31:49;;;;;;;17.92;10.93;;;;;;;16.80;97.17;100740.84;5061903;28;20057;-64
2023/10/03 01:34:17;;;;;;;15.80;10.05;;;;;;;16.78;97.25;100737.44;5071318;28;20053;-65
2023/10/03 01:36:47;;;;;;;21.90;10.40;;;;;;;16.74;97.51;100736.00;5064738;28;20078;-64
2023/10/03 01:39:15;;;;;;;18.70;10.50;;;;;;;16.72;97.17;100733.47;5055218;28;20052;-65
2023/10/03 01:41:42;;;;;;;16.98;10.32;;;;;;;16.70;97.13;100730.91;5050404;28;20333;-64
2023/10/03 01:44:10;;;;;;;16.45;10.43;;;;;;;16.67;97.31;100731.19;5051605;28;20075;-66
2023/10/03 01:46:40;;;;;;;20.20;10.93;;;;;;;16.64;97.71;100726.09;5057535;28;20092;-64
2023/10/03 01:49:08;;;;;;;17.42;10.30;;;;;;;16.59;98.06;100728.31;5050632;28;20114;-63
2023/10/03 01:51:36;;;;;;;16.95;9.98;;;;;;;16.55;98.41;100720.72;5048431;28;20506;-64
2023/10/03 01:54:03;;;;;;;16.50;10.63;;;;;;;16.53;98.27;100710.22;5045573;28;20073;-64
2023/10/03 01:56:30;;;;;;;26.85;11.50;;;;;;;16.53;98.49;100701.41;5051143;28;20048;-65
2023/10/03 01:58:59;;;;;;;18.98;11.00;;;;;;;16.50;98.03;100701.66;5045540;28;20072;-64
2023/10/03 02:01:28;;;;;;;21.33;11.25;;;;;;;16.45;98.14;100699.38;5055545;28;20048;-64
2023/10/03 02:03:55;;;;;;;20.58;11.05;;;;;;;16.42;98.40;100692.47;5053502;28;20438;-64
2023/10/03 02:06:23;;;;;;;16.17;10.43;;;;;;;16.40;98.40;100685.63;5052491;28;20057;-64
2023/10/03 02:08:50;;;;;;;18.23;11.10;;;;;;;16.39;99.64;100689.22;5053117;28;20065;-64
2023/10/03 02:11:19;;;;;;;18.20;11.20;;;;;;;16.37;99.47;100680.56;5054836;28;20371;-63
2023/10/03 02:13:49;;;;;;;17.00;11.65;;;;;;;16.35;99.72;100677.19;5046354;28;20080;-64
2023/10/03 02:16:17;;;;;;;18.60;11.25;;;;;;;16.32;99.80;100666.81;5057296;28;20387;-65
2023/10/03 02:18:45;;;;;;;18.63;10.85;;;;;;;16.29;99.58;100667.03;5047754;28;20421;-65
2023/10/03 02:21:16;;;;;;;17.67;12.02;;;;;;;16.24;100.00;100663.94;5035806;28;20072;-64
2023/10/03 02:23:43;;;;;;;20.95;11.75;;;;;;;16.19;100.00;100659.84;5052773;28;20041;-64
2023/10/03 02:26:11;;;;;;;17.85;10.85;;;;;;;16.15;100.00;100660.22;5050444;28;20186;-65
2023/10/03 02:28:40;;;;;;;20.90;11.68;;;;;;;16.12;100.00;100653.34;5054102;28;20472;-65
2023/10/03 02:31:08;;;;;;;18.42;11.07;;;;;;;16.08;100.00;100648.41;5052028;28;20326;-63
2023/10/03 02:33:41;;;;;;;19.13;12.45;;;;;;;16.04;100.00;100634.53;5061457;28;20514;-64
2023/10/03 02:36:10;;;;;;;23.20;12.43;;;;;;;16.02;100.00;100632.97;5053555;28;20126;-63
2023/10/03 02:38:38;;;;;;;21.75;11.55;;;;;;;15.99;100.00;100627.94;5058871;28;20068;-63
2023/10/03 02:41:06;;;;;;;19.75;12.05;;;;;;;15.97;100.00;100629.84;5049351;28;20125;-65
2023/10/03 02:43:36;;;;;;;17.77;11.27;;;;;;;15.93;100.00;100622.13;5053751;28;20461;-63
2023/10/03 02:46:12;;;;;;;18.95;11.80;;;;;;;15.91;100.00;100607.31;5057687;28;20071;-65
2023/10/03 02:48:41;;;;;;;21.38;12.63;;;;;;;15.89;100.00;100598.59;5056831;28;20081;-65
2023/10/03 02:51:09;;;;;;;21.15;11.55;;;;;;;15.87;100.00;100598.75;5059735;28;20252;-64
2023/10/03 02:53:37;;;;;;;21.50;11.75;;;;;;;15.84;100.00;100598.13;5053938;28;20549;-64
2023/10/03 02:56:04;;;;;;;18.77;11.48;;;;;;;15.82;100.00;100589.47;5052907;28;20512;-65
2023/10/03 02:58:32;;;;;;;21.17;12.63;;;;;;;15.78;100.00;100580.06;5044152;28;20072;-63
2023/10/03 03:00:59;;;;;;;18.35;11.70;;;;;;;15.77;100.00;100573.91;5053903;28;20095;-64
2023/10/03 03:03:30;;;;;;;19.20;11.48;;;;;;;15.75;100.00;100562.56;5051994;28;20056;-64
2023/10/03 03:05:59;;;;;;;18.95;12.20;;;;;;;15.72;100.00;100567.31;5021590;28;20503;-65
2023/10/03 03:08:28;;;;;;;23.08;11.38;;;;;;;15.69;100.00;100563.91;5057703;28;20052;-64
2023/10/03 03:10:57;;;;;;;17.63;10.75;;;;;;;15.64;100.00;100555.50;5057200;28;20198;-64
2023/10/03 03:13:27;;;;;;;20.17;11.63;;;;;;;15.61;100.00;100552.22;5055990;28;20060;-63
2023/10/03 03:16:01;;;;;;;21.55;12.45;;;;;;;15.56;100.00;100552.56;5054875;28;20045;-65
2023/10/03 03:18:50;;;;;;;17.75;11.55;;;;;;;15.53;100.00;100549.31;5053285;28;20048;-64
2023/10/03 03:21:20;;;;;;;19.83;11.73;;;;;;;15.51;100.00;100556.56;5056482;28;20079;-64
2023/10/03 03:24:00;;;;;;;20.75;11.57;;;;;;;15.50;100.00;100547.78;5056087;28;20106;-63
2023/10/03 03:26:39;;;;;;;21.67;11.82;;;;;;;15.51;100.00;100535.34;5054767;28;20105;-64
2023/10/03 03:30:09;;;;;;;18.92;11.52;;;;;;;15.52;99.99;100521.94;5054217;28;20142;-64
2023/10/03 03:31:55;;;;;;;20.10;12.30;;;;;;;15.49;100.00;100518.69;5049084;28;20077;-65
2023/10/03 03:34:23;;;;;;;20.25;12.30;;;;;;;15.47;100.00;100521.50;5055089;28;20240;-64
2023/10/03 03:36:54;;;;;;;20.70;11.48;;;;;;;15.44;100.00;100516.41;5051835;28;20527;-63
2023/10/03 03:39:26;;;;;;;17.73;11.45;;;;;;;15.44;100.00;100503.16;5057390;28;20065;-64
2023/10/03 03:41:53;;;;;;;24.70;12.20;;;;;;;15.42;100.00;100505.09;5042262;28;20260;-64
2023/10/03 03:44:21;;;;;;;23.08;11.48;;;;;;;15.44;99.98;100501.38;5050429;28;20584;-65
2023/10/03 03:46:48;;;;;;;28.63;12.43;;;;;;;15.43;100.00;100499.66;5056978;28;20041;-64
2023/10/03 03:49:18;;;;;;;19.92;11.45;;;;;;;15.40;100.00;100499.94;5054479;28;20498;-64
2023/10/03 03:51:46;;;;;;;22.88;11.07;;;;;;;15.41;100.00;100491.00;5051591;28;20167;-65
2023/10/03 03:54:13;;;;;;;22.27;12.98;;;;;;;15.41;99.91;100480.38;5057998;28;20094;-62
2023/10/03 03:56:40;;;;;;;18.92;11.32;;;;;;;15.40;99.72;100481.38;5053955;28;20084;-64
2023/10/03 03:59:09;;;;;;;23.63;12.65;;;;;;;15.42;99.91;100479.41;5051219;28;20148;-64
2023/10/03 04:01:37;;;;;;;24.15;12.30;;;;;;;15.41;99.45;100480.38;5053276;28;20048;-64
2023/10/03 04:04:07;;;;;;;24.20;11.68;;;;;;;15.38;99.62;100475.31;5053592;28;20094;-64
2023/10/03 04:06:35;;;;;;;26.08;11.75;;;;;;;15.37;100.00;100478.13;5053920;28;20076;-65
2023/10/03 04:09:05;;;;;;;21.98;11.95;;;;;;;15.34;100.00;100481.84;5056707;28;20106;-64
2023/10/03 04:11:36;;;;;;;25.88;13.73;;;;;;;15.31;100.00;100479.47;5051111;28;20048;-64
2023/10/03 04:14:05;;;;;;;23.30;13.35;;;;;;;15.28;100.00;100473.56;5048982;28;20080;-64
2023/10/03 04:16:43;;;;;;;26.73;12.80;;;;;;;15.26;100.00;100468.34;5053709;28;20080;-63
2023/10/03 04:19:10;;;;;;;23.55;12.30;;;;;;;15.24;100.00;100465.00;5051088;28;20098;-66
2023/10/03 04:21:40;;;;;;;25.38;12.43;;;;;;;15.26;100.00;100464.88;5049001;28;20507;-64
2023/10/03 04:24:10;;;;;;;25.15;13.18;;;;;;;15.26;99.81;100462.22;5052424;28;20127;-64
2023/10/03 04:26:41;;;;;;;24.08;12.40;;;;;;;15.28;99.76;100452.34;5047205;28;20068;-65
2023/10/03 04:29:11;;;;;;;25.10;12.65;;;;;;;15.31;99.92;100455.59;5048007;28;20514;-63
2023/10/03 04:31:38;;;;;;;24.45;13.27;;;;;;;15.31;99.27;100452.06;5051103;28;20561;-65
2023/10/03 04:34:07;;;;;;;24.30;13.60;;;;;;;15.34;99.24;100446.53;5061157;28;20053;-64
2023/10/03 04:36:36;;;;;;;27.45;13.30;;;;;;;15.37;98.63;100441.81;5059939;28;20083;-65
2023/10/03 04:39:03;;;;;;;26.27;13.27;;;;;;;15.39;98.39;100439.03;5058155;28;20064;-65
2023/10/03 04:41:33;;;;;;;27.58;13.25;;;;;;;15.39;98.41;100434.56;5063573;28;20056;-64
2023/10/03 04:44:02;;;;;;;28.90;14.32;;;;;;;15.39;97.86;100429.25;5060274;28;20083;-65
2023/10/03 04:46:29;;;;;;;23.67;13.52;;;;;;;15.39;97.89;100429.25;5065164;28;20523;-64
2023/10/03 04:48:57;;;;;;;28.05;13.73;;;;;;;15.40;97.79;100420.34;5053515;28;20079;-66
2023/10/03 04:51:24;;;;;;;26.48;14.35;;;;;;;15.42;97.71;100420.22;5057171;28;20048;-65
2023/10/03 04:53:51;;;;;;;28.45;14.15;;;;;;;15.41;97.35;100419.38;5053125;28;20542;-66
2023/10/03 04:56:18;;;;;;;23.70;13.27;;;;;;;15.42;97.35;100423.72;5054119;28;20049;-64
2023/10/03 04:58:46;;;;;;;24.27;13.70;;;;;;;15.44;97.32;100412.97;5051290;28;21256;-64
2023/10/03 05:01:14;;;;;;;26.88;14.07;;;;;;;15.45;96.77;100404.91;5060264;28;20113;-62
2023/10/03 05:03:41;;;;;;;27.15;12.68;;;;;;;15.49;96.78;100407.28;5057487;28;20161;-66
2023/10/03 05:06:11;;;;;;;27.27;14.10;;;;;;;15.53;96.23;100400.75;5059549;28;20119;-65
2023/10/03 05:08:38;;;;;;;22.73;13.35;;;;;;;15.56;95.86;100393.38;5050559;28;20061;-64
2023/10/03 05:11:06;;;;;;;28.63;13.82;;;;;;;15.60;95.25;100399.28;5057326;28;20076;-65
2023/10/03 05:13:34;;;;;;;23.02;13.75;;;;;;;15.64;95.28;100390.13;5059448;28;20090;-65
2023/10/03 05:16:01;;;;;;;25.80;14.32;;;;;;;15.66;94.96;100373.09;5055106;28;20149;-65
2023/10/03 05:18:30;;;;;;;24.48;12.43;;;;;;;15.70;94.49;100373.69;5056319;28;20053;-63
2023/10/03 05:20:58;;;;;;;29.25;14.80;;;;;;;15.72;94.48;100376.22;5064893;28;20530;-65
2023/10/03 05:23:25;;;;;;;26.80;13.38;;;;;;;15.74;94.25;100366.31;5057556;28;20114;-64
2023/10/03 05:25:52;;;;;;;27.75;14.25;;;;;;;15.78;93.97;100362.41;5062284;28;20053;-65
2023/10/03 05:28:20;;;;;;;28.88;14.60;;;;;;;15.79;93.96;100353.47;5057366;28;20057;-63
2023/10/03 05:30:47;;;;;;;26.45;13.00;;;;;;;15.81;93.48;100352.41;5046655;28;20045;-63
2023/10/03 05:33:14;;;;;;;24.88;13.45;;;;;;;15.85;93.34;100353.81;5056642;28;20071;-63
2023/10/03 05:35:45;;;;;;;28.48;14.60;;;;;;;15.93;93.10;100358.44;5049363;28;20076;-64
2023/10/03 05:38:12;;;;;;;28.05;13.90;;;;;;;15.96;92.31;100352.88;5053958;28;20049;-63
2023/10/03 05:40:39;;;;;;;28.02;14.15;;;;;;;16.00;91.91;100330.41;5055949;28;20140;-64
2023/10/03 05:43:07;;;;;;;25.63;13.65;;;;;;;16.03;91.51;100322.19;5048819;28;20329;-63
2023/10/03 05:45:35;;;;;;;29.27;14.80;;;;;;;16.02;91.34;100320.50;5051044;28;20049;-64
2023/10/03 05:48:04;;;;;;;30.80;13.95;;;;;;;16.05;91.26;100327.34;5038245;28;20080;-63
2023/10/03 05:50:33;;;;;;;27.85;14.32;;;;;;;16.09;90.47;100329.63;5057961;28;20048;-65
2023/10/03 05:53:01;;;;;;;27.77;15.13;;;;;;;16.14;90.03;100326.56;5052193;28;20048;-64
2023/10/03 05:55:28;;;;;;;25.42;14.55;;;;;;;16.20;90.12;100329.50;5052552;28;20052;-63
2023/10/03 05:57:56;;;;;;;27.85;13.93;;;;;;;16.22;89.40;100324.09;5054030;28;20131;-64
2023/10/03 06:00:23;;;;;;;26.65;14.13;;;;;;;16.27;89.08;100318.38;5050164;28;20049;-65
2023/10/03 06:02:51;;;;;;;26.70;13.98;;;;;;;16.29;88.63;100325.22;5064150;28;20044;-65
2023/10/03 06:05:20;;;;;;;22.33;14.05;;;;;;;16.32;88.18;100318.81;5058883;28;20045;-63
2023/10/03 06:07:47;;;;;;;25.08;14.25;;;;;;;16.35;87.89;100316.72;5058169;28;20072;-63
2023/10/03 06:10:16;;;;;;;34.60;15.07;;;;;;;16.36;87.88;100334.34;5062953;28;20123;-62
2023/10/03 06:12:44;;;;;;;28.30;15.35;;;;;;;16.41;87.67;100318.84;5062940;28;20106;-64
2023/10/03 06:15:15;;;;;;;24.17;13.88;;;;;;;16.41;87.74;100312.69;5053223;28;20061;-64
2023/10/03 06:17:42;;;;;;;24.80;14.65;;;;;;;16.44;87.38;100307.09;5055480;28;20542;-63
2023/10/03 06:20:14;;;;;;;28.17;13.68;;;;;;;16.49;87.13;100296.91;5056050;28;20135;-63
2023/10/03 06:22:42;;;;;;;27.75;14.18;;;;;;;16.57;86.25;100288.22;5055508;28;20049;-65
2023/10/03 06:25:10;;;;;;;24.45;13.38;;;;;;;16.59;85.96;100283.63;5061140;28;20149;-64
2023/10/03 06:27:37;;;;;;;30.48;13.38;;;;;;;16.66;85.29;100300.69;5061086;28;20143;-64
2023/10/03 06:30:06;;;;;;;30.92;15.02;;;;;;;16.73;84.86;100295.72;5047989;28;20064;-64
2023/10/03 06:32:34;;;;;;;25.42;14.00;;;;;;;16.79;84.62;100289.84;5056174;28;20072;-65
2023/10/03 06:35:02;;;;;;;32.25;15.13;;;;;;;16.79;84.27;100288.00;5068963;28;20060;-66
2023/10/03 06:37:29;;;;;;;27.42;14.52;;;;;;;16.84;83.91;100285.81;5068375;28;20057;-65
2023/10/03 06:39:56;;;;;;;26.95;13.52;;;;;;;16.90;83.55;100282.56;5074224;28;20053;-65
2023/10/03 06:42:25;;;;;;;27.50;14.90;;;;;;;16.94;83.31;100293.78;5062526;28;20075;-64
2023/10/03 06:44:52;;;;;;;27.33;14.25;;;;;;;16.99;82.99;100298.69;5052208;28;20593;-64
2023/10/03 06:47:22;;;;;;;26.23;13.63;;;;;;;16.97;83.47;100306.78;5055434;28;20103;-64
2023/10/03 06:49:50;;;;;;;27.08;14.52;;;;;;;17.08;83.28;100304.00;5061037;28;20099;-64
2023/10/03 06:52:17;;;;;;;28.73;14.75;;;;;;;17.15;82.36;100298.94;5055633;28;20527;-65
2023/10/03 06:54:44;;;;;;;26.05;15.40;;;;;;;17.18;82.19;100296.84;5059356;28;20115;-64
2023/10/03 06:57:12;;;;;;;25.70;14.57;;;;;;;17.20;82.67;100292.25;5051264;28;20136;-64
2023/10/03 06:59:39;;;;;;;26.08;14.80;;;;;;;17.28;82.30;100278.22;5056321;28;20045;-64
2023/10/03 07:02:07;;;;;;;30.63;15.57;;;;;;;17.36;81.94;100277.50;5052652;28;20108;-64
2023/10/03 07:04:35;;;;;;;29.00;15.63;;;;;;;17.43;81.40;100271.47;5059075;28;20162;-64
2023/10/03 07:07:05;;;;;;;26.05;14.75;;;;;;;17.55;80.82;100272.13;5060938;28;20131;-64
2023/10/03 07:09:32;;;;;;;28.63;14.93;;;;;;;17.52;80.79;100259.16;5059783;28;20098;-64
2023/10/03 07:12:00;;;;;;;31.00;15.80;;;;;;;17.57;80.60;100248.06;5055981;28;20046;-66
2023/10/03 07:14:27;;;;;;;30.17;14.95;;;;;;;17.64;80.47;100243.81;5048227;28;20575;-65
2023/10/03 07:16:55;;;;;;;29.58;15.77;;;;;;;17.71;80.00;100247.59;5054972;28;20624;-64
2023/10/03 07:19:24;;;;;;;26.33;15.15;;;;;;;17.77;80.24;100264.84;5057948;28;20164;-65
2023/10/03 07:21:52;;;;;;;24.98;14.32;;;;;;;17.95;79.52;100260.41;5056325;28;20510;-66
2023/10/03 07:24:20;;;;;;;29.10;15.18;;;;;;;18.02;78.84;100258.84;5064483;28;20048;-64
2023/10/03 07:26:48;;;;;;;27.30;15.55;;;;;;;18.00;78.94;100258.16;5057455;28;20091;-66
2023/10/03 07:29:17;;;;;;;36.13;15.77;;;;;;;18.13;78.32;100242.66;5056841;28;20577;-64
2023/10/03 07:31:44;;;;;;;27.67;15.02;;;;;;;18.22;78.05;100259.59;5053837;28;20584;-66
2023/10/03 07:34:17;;;;;;;30.15;15.63;;;;;;;18.35;77.17;100240.59;5059601;28;20069;-64
2023/10/03 07:36:45;;;;;;;29.25;16.05;;;;;;;18.46;76.70;100243.03;5055685;28;20076;-65
2023/10/03 07:39:17;;;;;;;25.08;14.98;;;;;;;18.51;76.67;100237.22;5058840;28;20045;-63
2023/10/03 07:41:44;;;;;;;26.10;15.27;;;;;;;18.61;76.34;100238.88;5055272;28;20093;-63
2023/10/03 07:44:11;;;;;;;28.15;14.93;;;;;;;18.70;76.05;100240.66;5058861;28;20124;-64
2023/10/03 07:46:38;;;;;;;29.45;16.60;;;;;;;18.88;75.39;100243.31;5055157;28;20077;-64
2023/10/03 07:49:07;;;;;;;28.45;15.43;;;;;;;19.03;75.06;100232.09;5058422;28;20111;-64
2023/10/03 07:51:35;;;;;;;35.30;16.55;;;;;;;19.10;74.77;100241.16;5054393;28;20515;-64
2023/10/03 07:54:04;;;;;;;30.05;16.55;;;;;;;19.24;74.05;100248.59;5058749;28;20090;-63
2023/10/03 07:56:32;;;;;;;36.67;17.33;;;;;;;19.43;73.55;100247.56;5062389;28;20075;-64
2023/10/03 07:59:01;;;;;;;32.03;16.85;;;;;;;19.50;72.85;100253.97;5050501;28;20479;-64
2023/10/03 08:01:30;;;;;;;35.10;19.08;;;;;;;19.67;72.38;100247.75;5051520;28;20148;-63
2023/10/03 08:04:15;;;;;;;34.15;17.80;;;;;;;19.79;71.63;100237.63;5056784;28;20479;-63
2023/10/03 08:06:43;;;;;;;34.50;17.30;;;;;;;19.87;71.18;100234.16;5059910;28;20045;-64
2023/10/03 08:09:13;;;;;;;32.60;17.30;;;;;;;20.13;70.00;100245.66;5050479;28;20144;-64
2023/10/03 08:11:46;;;;;;;31.42;17.15;;;;;;;20.31;69.85;100234.84;5053766;28;20053;-66
2023/10/03 08:14:16;;;;;;;33.72;18.50;;;;;;;20.72;68.60;100230.44;5051712;28;20036;-64
2023/10/03 08:16:45;;;;;;;31.65;17.63;;;;;;;21.05;66.87;100225.09;5048866;28;20049;-63
2023/10/03 08:19:26;;;;;;;30.95;17.45;;;;;;;21.24;65.54;100229.25;5049542;28;20048;-64
2023/10/03 08:21:55;;;;;;;32.38;17.70;;;;;;;21.36;65.06;100235.97;5059926;28;20048;-64
2023/10/03 08:24:28;;;;;;;31.42;17.25;;;;;;;21.68;63.89;100220.84;5037022;28;20071;-64
2023/10/03 08:26:59;;;;;;;32.17;17.02;;;;;;;21.59;63.65;100216.50;5060973;28;20115;-64
2023/10/03 08:29:28;;;;;;;44.17;19.55;;;;;;;21.66;63.02;100234.41;5044798;28;20143;-64
2023/10/03 08:31:59;;;;;;;30.88;17.75;;;;;;;21.64;63.44;100216.81;5047317;28;20478;-64
2023/10/03 08:34:28;;;;;;;30.38;17.08;;;;;;;21.58;64.20;100215.69;5037633;28;20180;-64
2023/10/03 08:36:59;;;;;;;32.58;17.92;;;;;;;21.82;63.27;100201.34;5050727;28;20083;-64
2023/10/03 08:39:32;;;;;;;33.75;18.17;;;;;;;21.83;62.79;100207.53;5047516;28;20079;-64
2023/10/03 08:42:12;;;;;;;37.95;18.02;;;;;;;21.99;62.68;100211.00;5052912;28;20076;-64
2023/10/03 08:44:52;;;;;;;30.48;17.67;;;;;;;22.26;61.46;100210.75;5058749;28;20106;-64
2023/10/03 08:47:30;;;;;;;38.03;19.63;;;;;;;22.37;61.34;100199.59;5043290;28;20133;-64
2023/10/03 08:50:14;;;;;;;35.05;18.95;;;;;;;22.41;61.02;100187.50;5043465;28;20491;-64
2023/10/03 08:52:47;;;;;;;34.78;18.52;;;;;;;22.37;61.03;100187.03;5042940;28;20111;-65
2023/10/03 08:55:19;;;;;;;32.33;16.50;;;;;;;22.46;60.69;100182.44;5048135;28;20158;-65
2023/10/03 08:57:48;;;;;;;32.03;17.65;;;;;;;22.23;60.39;100174.38;5042694;28;20507;-63
2023/10/03 09:00:17;;;;;;;27.63;16.15;;;;;;;22.26;60.59;100166.00;5033808;28;20056;-65
2023/10/03 09:02:49;;;;;;;31.50;17.83;;;;;;;22.36;60.47;100165.75;5036298;28;20076;-64
2023/10/03 09:05:22;;;;;;;30.75;16.58;;;;;;;22.40;60.55;100169.75;5048246;28;20086;-64
2023/10/03 09:07:50;;;;;;;34.72;16.60;;;;;;;22.43;59.67;100182.81;5051094;28;20816;-66
2023/10/03 09:10:23;;;;;;;30.65;16.42;;;;;;;22.34;59.63;100173.16;5052373;28;20066;-64
2023/10/03 09:13:04;;;;;;;33.63;17.38;;;;;;;22.33;59.91;100164.25;5048097;28;20331;-64
2023/10/03 09:15:38;;;;;;;27.67;16.00;;;;;;;22.47;58.93;100174.25;5050851;28;20080;-65
2023/10/03 09:18:10;;;;;;;30.88;17.02;;;;;;;22.57;58.98;100149.84;5046229;28;20076;-64
2023/10/03 09:20:39;;;;;;;30.65;16.80;;;;;;;22.47;58.74;100178.78;5051617;28;20105;-65
2023/10/03 09:23:07;;;;;;;28.35;16.17;;;;;;;22.43;58.92;100193.53;5055391;28;20056;-65
2023/10/03 09:25:38;;;;;;;29.48;15.32;;;;;;;22.57;58.63;100194.63;5045820;28;20545;-64
2023/10/03 09:28:06;;;;;;;29.20;15.82;;;;;;;22.62;58.50;100189.56;5046915;28;20582;-64
2023/10/03 09:30:40;;;;;;;31.35;16.45;;;;;;;22.58;58.29;100201.66;5038026;28;20053;-63
2023/10/03 09:33:09;;;;;;;27.25;15.95;;;;;;;22.70;58.04;100190.31;5052168;28;20139;-64
2023/10/03 09:35:39;;;;;;;34.63;16.67;;;;;;;22.80;58.37;100181.19;5049634;28;20303;-64
2023/10/03 09:38:17;;;;;;;30.52;16.15;;;;;;;22.78;58.22;100176.00;5043580;28;20110;-64
2023/10/03 09:40:52;;;;;;;28.00;17.17;;;;;;;22.94;57.95;100183.94;5042360;28;20143;-66
2023/10/03 09:43:27;;;;;;;32.40;16.73;;;;;;;22.96;57.94;100184.59;5045817;28;20127;-64
2023/10/03 09:45:57;;;;;;;30.73;17.35;;;;;;;23.01;57.70;100165.28;5047080;28;20502;-64
2023/10/03 09:48:24;;;;;;;34.95;15.25;;;;;;;23.16;57.07;100179.56;5048165;28;20076;-65
2023/10/03 09:50:53;;;;;;;30.15;16.63;;;;;;;23.21;57.12;100190.56;5050916;28;20048;-64
2023/10/03 09:53:39;;;;;;;29.75;15.93;;;;;;;23.18;57.12;100176.66;5048666;28;20083;-65
2023/10/03 09:56:08;;;;;;;29.10;15.02;;;;;;;23.25;57.44;100177.63;5044861;28;20656;-64
2023/10/03 09:58:36;;;;;;;28.80;16.58;;;;;;;23.28;57.28;100174.56;5028268;28;20049;-64
2023/10/03 10:01:04;;;;;;;32.80;17.65;;;;;;;23.43;56.89;100163.84;5040456;28;20074;-64
2023/10/03 10:03:36;;;;;;;29.35;17.27;;;;;;;23.56;56.17;100163.19;5045038;28;20053;-64
2023/10/03 10:06:28;;;;;;;29.35;16.80;;;;;;;23.72;56.37;100163.84;5049439;28;20061;-63
2023/10/03 10:09:02;;;;;;;30.63;16.83;;;;;;;23.73;55.83;100162.84;5055943;28;20085;-67
2023/10/03 10:11:30;;;;;;;30.85;17.10;;;;;;;23.92;56.23;100172.16;5056575;28;20099;-62
2023/10/03 10:14:02;;;;;;;29.20;15.98;;;;;;;24.19;55.91;100173.31;5037120;28;20148;-62
2023/10/03 10:16:30;;;;;;;33.42;17.77;;;;;;;23.88;55.56;100178.94;5043061;28;20144;-63
2023/10/03 10:18:59;;;;;;;30.52;16.05;;;;;;;23.96;55.78;100184.22;5038506;28;20053;-62
2023/10/03 10:21:32;;;;;;;32.47;16.00;;;;;;;24.02;55.56;100182.63;5045823;28;20090;-66
2023/10/03 10:24:24;;;;;;;29.52;15.93;;;;;;;24.24;55.13;100173.56;5029209;28;20147;-64
2023/10/03 10:26:52;;;;;;;30.95;17.35;;;;;;;23.90;55.32;100168.81;5044805;28;20079;-65
2023/10/03 10:29:24;;;;;;;27.40;15.57;;;;;;;24.43;55.41;100161.38;5041597;28;20179;-65
2023/10/03 10:31:59;;;;;;;28.58;15.02;;;;;;;24.49;53.53;100162.47;5058253;28;20072;-64
2023/10/03 10:34:27;;;;;;;30.85;16.65;;;;;;;24.55;54.39;100147.44;5040170;28;20702;-64
2023/10/03 10:37:01;;;;;;;27.33;15.88;;;;;;;24.79;53.32;100154.25;5040889;28;20076;-65
2023/10/03 10:39:53;;;;;;;29.13;15.88;;;;;;;24.85;53.28;100164.22;5036822;28;20092;-66
2023/10/03 10:42:25;;;;;;;25.88;15.13;;;;;;;24.99;53.09;100155.22;5038967;28;20061;-66
2023/10/03 10:45:04;;;;;;;24.88;14.45;;;;;;;25.24;52.46;100158.34;5055911;28;20089;-66
2023/10/03 10:47:33;;;;;;;27.40;14.98;;;;;;;25.37;52.12;100153.03;5051853;28;20451;-65
2023/10/03 10:50:06;;;;;;;30.50;14.95;;;;;;;25.37;51.68;100158.44;5051508;28;20052;-65
2023/10/03 10:53:01;;;;;;;26.83;14.70;;;;;;;25.13;50.83;100162.44;5054166;28;20052;-63
2023/10/03 10:55:29;;;;;;;31.13;14.90;;;;;;;25.04;50.50;100151.94;5051814;28;20148;-64
2023/10/03 10:58:08;;;;;;;23.98;14.13;;;;;;;24.73;51.19;100158.56;5054847;28;20133;-64
2023/10/03 11:00:36;;;;;;;35.67;16.10;;;;;;;24.67;51.77;100164.69;5052656;28;20065;-63
2023/10/03 11:03:04;;;;;;;21.42;12.63;;;;;;;24.74;51.56;100170.97;5050118;28;20080;-65
2023/10/03 11:05:41;;;;;;;23.45;12.90;;;;;;;24.40;51.56;100160.91;5048032;28;20584;-63
2023/10/03 11:08:09;;;;;;;26.83;13.05;;;;;;;24.47;51.46;100172.59;5053063;28;20232;-64
2023/10/03 11:10:56;;;;;;;21.55;12.02;;;;;;;24.26;51.85;100170.69;5045712;28;20045;-65
2023/10/03 11:13:24;;;;;;;18.48;11.38;;;;;;;24.42;51.03;100183.09;5049042;28;20056;-64
2023/10/03 11:15:52;;;;;;;23.45;13.38;;;;;;;24.43;51.30;100171.31;5055635;28;20820;-65
2023/10/03 11:18:27;;;;;;;22.80;12.98;;;;;;;24.28;51.45;100162.44;5046797;28;20088;-65
2023/10/03 11:20:57;;;;;;;26.83;12.32;;;;;;;24.45;51.52;100167.41;5046754;28;20080;-65
2023/10/03 11:23:25;;;;;;;19.08;11.75;;;;;;;24.72;50.84;100179.25;5058364;28;20053;-65
2023/10/03 11:25:59;;;;;;;26.27;12.57;;;;;;;24.83;50.39;100169.00;5061172;28;20738;-65